Time;durP1;ratioP1;P1;durP2;ratioP2;P2;SDS_P1;SDS_P2;PMS_P1;PMS_P2;Temp;Humidity;BMP_temperature;BMP_pressure;BME280_temperature;BME280_humidity;BME280_pressure;Samples;Min_cycle;Max_cycle;Signal;HPM_P1;HPM_P2
2022/12/01 00:01:11;;;;;;;82.85;44.92;;;5.80;99.90;;;;;;5001980;28;20072;-59
2022/12/01 00:03:37;;;;;;;83.85;44.22;;;5.70;99.90;;;;;;5001640;28;20425;-59
2022/12/01 00:06:05;;;;;;;82.57;44.00;;;6.00;99.90;;;;;;4990052;28;20685;-60
2022/12/01 00:08:32;;;;;;;80.78;43.78;;;5.90;99.90;;;;;;5001472;28;20599;-59
2022/12/01 00:11:10;;;;;;;86.32;44.75;;;5.80;99.90;;;;;;5001396;28;20125;-59
2022/12/01 00:13:37;;;;;;;84.00;43.88;;;6.00;99.90;;;;;;5000117;28;20054;-60
2022/12/01 00:16:12;;;;;;;85.25;44.22;;;5.90;99.90;;;;;;5002043;28;20046;-59
2022/12/01 00:18:37;;;;;;;90.07;45.75;;;5.90;99.90;;;;;;5002637;28;20097;-59
2022/12/01 00:21:03;;;;;;;84.85;46.22;;;6.20;99.90;;;;;;5002249;28;20049;-59
2022/12/01 00:23:29;;;;;;;87.93;45.58;;;6.00;99.90;;;;;;5001631;28;20135;-59
2022/12/01 00:26:01;;;;;;;86.57;45.17;;;5.90;99.90;;;;;;5001793;28;20065;-59
2022/12/01 00:28:27;;;;;;;82.75;45.78;;;6.00;99.90;;;;;;5002475;28;20053;-58
2022/12/01 00:30:53;;;;;;;83.93;46.30;;;5.80;99.90;;;;;;5002192;28;20054;-59
2022/12/01 00:33:18;;;;;;;88.50;47.42;;;5.60;99.90;;;;;;5001628;28;20529;-59
2022/12/01 00:35:44;;;;;;;89.65;45.80;;;5.60;99.90;;;;;;5001683;28;20085;-59
2022/12/01 00:38:09;;;;;;;89.63;47.60;;;5.90;99.90;;;;;;5001530;28;20057;-59
2022/12/01 00:40:35;;;;;;;86.65;47.08;;;5.90;99.90;;;;;;5001145;28;20062;-59
2022/12/01 00:43:01;;;;;;;89.15;47.33;;;5.60;99.90;;;;;;5003178;28;20045;-59
2022/12/01 00:45:26;;;;;;;87.85;47.85;;;6.30;99.90;;;;;;5001590;28;20179;-59
2022/12/01 00:47:52;;;;;;;89.13;47.42;;;5.60;99.90;;;;;;5003098;28;20103;-59
2022/12/01 00:50:18;;;;;;;91.40;49.03;;;5.80;99.90;;;;;;5002393;28;20037;-59
2022/12/01 00:52:43;;;;;;;91.63;46.53;;;5.50;99.90;;;;;;5006012;28;20052;-59
2022/12/01 00:55:09;;;;;;;93.40;46.85;;;5.80;99.90;;;;;;5006045;28;20136;-59
2022/12/01 00:57:35;;;;;;;89.03;46.88;;;6.00;99.90;;;;;;5003897;28;20361;-60
2022/12/01 01:00:00;;;;;;;87.55;47.53;;;6.10;99.90;;;;;;5006133;28;20534;-59
2022/12/01 01:02:26;;;;;;;92.93;47.88;;;5.70;99.90;;;;;;5004457;28;20042;-59
2022/12/01 01:04:52;;;;;;;87.85;47.47;;;5.70;99.90;;;;;;4999724;28;20046;-60
2022/12/01 01:07:17;;;;;;;96.53;48.50;;;5.40;99.90;;;;;;4992071;28;20042;-59
2022/12/01 01:09:43;;;;;;;89.43;48.25;;;5.90;99.90;;;;;;4987008;28;20129;-58
2022/12/01 01:12:08;;;;;;;94.15;48.20;;;5.50;99.90;;;;;;4986034;28;20154;-59
2022/12/01 01:14:34;;;;;;;89.07;47.22;;;5.70;99.90;;;;;;4986984;28;20097;-59
2022/12/01 01:17:00;;;;;;;96.68;49.58;;;5.50;99.90;;;;;;4985716;28;20097;-59
2022/12/01 01:19:26;;;;;;;90.18;49.15;;;5.50;99.90;;;;;;4986585;28;20038;-59
2022/12/01 01:21:52;;;;;;;94.47;50.30;;;5.60;99.90;;;;;;4986295;28;20125;-59
2022/12/01 01:24:17;;;;;;;94.55;48.08;;;5.60;99.90;;;;;;4985961;28;20048;-59
2022/12/01 01:26:43;;;;;;;92.32;49.10;;;5.80;99.90;;;;;;4985213;28;20048;-59
2022/12/01 01:29:09;;;;;;;93.90;49.10;;;5.50;99.90;;;;;;4985668;28;20104;-58
2022/12/01 01:31:35;;;;;;;92.13;48.72;;;5.50;99.90;;;;;;4985822;28;20042;-59
2022/12/01 01:34:02;;;;;;;86.63;48.13;;;5.60;99.90;;;;;;4985397;28;20058;-59
2022/12/01 01:36:28;;;;;;;89.72;48.13;;;5.50;99.90;;;;;;4985781;28;20120;-59
2022/12/01 01:38:54;;;;;;;89.82;47.95;;;5.40;99.90;;;;;;4986132;28;20085;-60
2022/12/01 01:41:21;;;;;;;86.00;46.92;;;5.60;99.90;;;;;;4985323;28;20153;-59
2022/12/01 01:43:49;;;;;;;94.07;48.30;;;5.40;99.90;;;;;;4984865;28;20050;-59
2022/12/01 01:46:24;;;;;;;89.72;48.20;;;5.50;99.90;;;;;;4985497;28;20525;-59
2022/12/01 01:48:58;;;;;;;95.75;48.58;;;5.40;99.90;;;;;;4986118;28;20413;-59
2022/12/01 01:51:29;;;;;;;91.18;48.95;;;5.40;99.90;;;;;;4985930;28;20126;-60
2022/12/01 01:54:01;;;;;;;93.18;49.10;;;5.80;99.90;;;;;;4985826;28;20096;-60
2022/12/01 01:56:28;;;;;;;97.95;48.38;;;5.60;99.90;;;;;;4983845;28;20207;-59
2022/12/01 01:58:54;;;;;;;93.13;49.78;;;5.50;99.90;;;;;;4985398;28;20054;-59
2022/12/01 02:01:20;;;;;;;95.53;48.90;;;6.20;99.90;;;;;;4985084;28;20034;-59
2022/12/01 02:03:47;;;;;;;93.72;47.70;;;5.80;99.90;;;;;;4985619;28;20049;-59
2022/12/01 02:06:13;;;;;;;95.18;49.83;;;5.70;99.90;;;;;;4995636;28;20133;-59
2022/12/01 02:08:39;;;;;;;98.78;49.60;;;5.70;99.90;;;;;;4984160;28;20469;-59
2022/12/01 02:11:29;;;;;;;100.30;50.83;;;5.80;99.90;;;;;;4983812;28;20046;-59
2022/12/01 02:14:22;;;;;;;100.28;49.97;;;5.50;99.90;;;;;;4985526;28;20062;-60
2022/12/01 02:20:25;;;;;;;95.95;51.47;;;5.70;99.90;;;;;;4964798;23;20533;-58
2022/12/01 02:23:24;;;;;;;103.15;50.15;;;5.60;99.90;;;;;;4966631;28;20046;-59
2022/12/01 02:26:30;;;;;;;96.13;48.70;;;5.80;99.90;;;;;;4964986;28;20043;-58
2022/12/01 02:29:26;;;;;;;103.13;50.85;;;5.70;99.90;;;;;;4966442;28;20047;-59
2022/12/01 02:32:22;;;;;;;103.40;50.28;;;5.80;99.90;;;;;;4965640;28;20038;-59
2022/12/01 02:34:56;;;;;;;105.15;49.88;;;5.70;99.90;;;;;;4965961;28;20048;-59
2022/12/01 02:38:09;;;;;;;103.18;51.58;;;5.40;99.90;;;;;;4965577;28;20046;-59
2022/12/01 02:40:45;;;;;;;111.50;53.13;;;5.60;99.90;;;;;;4960518;28;20127;-58
2022/12/01 02:43:30;;;;;;;105.65;51.38;;;5.60;99.90;;;;;;4965727;28;20134;-59
2022/12/01 02:46:35;;;;;;;105.32;51.05;;;5.50;99.90;;;;;;4965906;28;20043;-59
2022/12/01 02:49:06;;;;;;;113.75;53.33;;;5.70;99.90;;;;;;4912506;28;20070;-59
2022/12/01 02:51:35;;;;;;;106.75;51.88;;;5.90;99.90;;;;;;4965840;28;20042;-58
2022/12/01 02:54:03;;;;;;;104.90;52.13;;;5.50;99.90;;;;;;4965829;28;20383;-58
2022/12/01 02:56:29;;;;;;;105.13;51.75;;;5.80;99.90;;;;;;4964046;28;20449;-58
2022/12/01 02:58:54;;;;;;;110.85;52.72;;;5.80;99.90;;;;;;4965661;28;20047;-59
2022/12/01 03:01:26;;;;;;;108.78;53.85;;;6.20;99.90;;;;;;4965973;28;20687;-58
2022/12/01 03:04:41;;;;;;;104.60;50.97;;;5.80;99.90;;;;;;4963580;28;20046;-59
2022/12/01 03:07:16;;;;;;;104.78;52.03;;;5.40;99.90;;;;;;4935747;28;20156;-59
2022/12/01 03:10:00;;;;;;;107.40;51.05;;;5.70;99.90;;;;;;4945272;28;20079;-59
2022/12/01 03:12:45;;;;;;;105.63;50.65;;;5.60;99.90;;;;;;4946170;28;20077;-58
2022/12/01 03:15:31;;;;;;;107.88;51.85;;;6.60;99.90;;;;;;4945071;28;20531;-59
2022/12/01 03:18:17;;;;;;;;;;;5.60;99.90;;;;;;4945900;28;20078;-59
2022/12/01 03:21:27;;;;;;;109.18;51.65;;;5.60;99.90;;;;;;4945176;29;20529;-59
2022/12/01 03:24:02;;;;;;;107.43;51.17;;;5.60;99.90;;;;;;4946653;28;20592;-59
2022/12/01 03:26:31;;;;;;;111.80;53.08;;;5.30;99.90;;;;;;4944290;29;20084;-59
2022/12/01 03:29:08;;;;;;;112.05;53.17;;;5.60;99.90;;;;;;4946236;28;20039;-59
2022/12/01 03:31:39;;;;;;;108.13;51.22;;;5.50;99.90;;;;;;4946439;28;20055;-59
2022/12/01 03:34:28;;;;;;;105.47;52.35;;;5.30;99.90;;;;;;4945430;28;20410;-59
2022/12/01 03:36:57;;;;;;;110.93;53.42;;;5.60;99.90;;;;;;4945686;28;20130;-58
2022/12/01 03:39:27;;;;;;;113.13;52.03;;;5.90;99.90;;;;;;4944988;28;20051;-59
2022/12/01 03:42:11;;;;;;;111.32;53.13;;;5.70;99.90;;;;;;4943157;29;20047;-58
2022/12/01 03:44:50;;;;;;;115.53;51.95;;;5.60;99.90;;;;;;4945378;28;20182;-59
2022/12/01 03:47:20;;;;;;;111.65;52.45;;;5.40;99.90;;;;;;4945697;28;20194;-59
2022/12/01 03:49:50;;;;;;;113.60;54.80;;;5.60;99.90;;;;;;4945452;28;20132;-59
2022/12/01 03:52:44;;;;;;;104.82;51.47;;;5.60;99.90;;;;;;4927196;29;20051;-59
2022/12/01 03:55:24;;;;;;;113.32;53.78;;;5.40;99.90;;;;;;4944779;28;20628;-58
2022/12/01 03:57:59;;;;;;;115.90;52.92;;;5.30;99.90;;;;;;4945071;28;20054;-59
2022/12/01 04:00:25;;;;;;;;;;;5.70;99.90;;;;;;4928474;29;20126;-59
2022/12/01 04:02:59;;;;;;;116.60;53.72;;;5.80;99.90;;;;;;4945871;28;19922;-59
2022/12/01 04:05:25;;;;;;;113.03;52.08;;;5.30;99.90;;;;;;4953851;28;20102;-59
2022/12/01 04:07:51;;;;;;;110.10;51.63;;;5.30;99.90;;;;;;4946963;28;20059;-59
2022/12/01 04:10:17;;;;;;;110.13;53.40;;;5.30;99.90;;;;;;4944886;28;20712;-57
2022/12/01 04:12:43;;;;;;;111.57;52.25;;;5.40;99.90;;;;;;4944570;28;20102;-59
2022/12/01 04:15:11;;;;;;;116.72;53.83;;;5.30;99.90;;;;;;4945745;28;20499;-58
2022/12/01 04:17:44;;;;;;;114.25;53.45;;;5.50;99.90;;;;;;4959823;28;20517;-59
2022/12/01 04:20:12;;;;;;;114.03;52.95;;;5.60;99.90;;;;;;4943876;28;20051;-59
2022/12/01 04:22:38;;;;;;;111.82;51.75;;;5.30;99.90;;;;;;4944329;28;20043;-59
2022/12/01 04:25:05;;;;;;;116.32;52.67;;;5.80;99.90;;;;;;4944079;28;20059;-60
2022/12/01 04:27:31;;;;;;;119.50;54.10;;;5.70;99.90;;;;;;4949656;28;20126;-58
2022/12/01 04:29:57;;;;;;;113.25;51.38;;;5.60;99.90;;;;;;4948471;28;20090;-58
2022/12/01 04:32:22;;;;;;;110.80;52.58;;;5.60;99.90;;;;;;4948939;28;20043;-59
2022/12/01 04:34:48;;;;;;;117.40;54.58;;;5.60;99.90;;;;;;4948751;28;20058;-59
2022/12/01 04:37:14;;;;;;;113.13;52.97;;;5.70;99.90;;;;;;4948051;28;20031;-59
2022/12/01 04:39:41;;;;;;;113.53;52.90;;;5.90;99.90;;;;;;4948022;28;20511;-59
2022/12/01 04:42:07;;;;;;;119.20;53.03;;;5.60;99.90;;;;;;4962048;28;20042;-59
2022/12/01 04:44:33;;;;;;;120.00;54.33;;;5.60;99.90;;;;;;4963359;28;20062;-59
2022/12/01 04:46:59;;;;;;;113.85;53.03;;;5.30;99.90;;;;;;4947111;28;20402;-59
2022/12/01 04:49:25;;;;;;;111.47;51.25;;;5.80;99.90;;;;;;4947688;28;20523;-59
2022/12/01 04:51:50;;;;;;;112.30;52.08;;;5.80;99.90;;;;;;4947770;28;20054;-59
2022/12/01 04:54:17;;;;;;;107.38;50.33;;;5.80;99.90;;;;;;4947364;28;20624;-59
2022/12/01 04:56:42;;;;;;;107.22;51.47;;;5.60;99.90;;;;;;4946259;28;20047;-59
2022/12/01 04:59:09;;;;;;;116.20;51.55;;;5.80;99.90;;;;;;4947507;28;20047;-57
2022/12/01 05:01:35;;;;;;;113.40;51.25;;;5.60;99.90;;;;;;4947581;28;20043;-58
2022/12/01 05:04:01;;;;;;;111.25;50.55;;;5.80;99.90;;;;;;4950592;28;20590;-59
2022/12/01 05:06:27;;;;;;;109.43;51.17;;;5.60;99.90;;;;;;4957064;28;20098;-59
2022/12/01 05:08:55;;;;;;;112.13;51.65;;;5.80;99.90;;;;;;4948748;28;20043;-59
2022/12/01 05:11:21;;;;;;;112.35;50.60;;;5.70;99.90;;;;;;4947339;28;20047;-59
2022/12/01 05:13:48;;;;;;;111.85;51.17;;;5.60;99.90;;;;;;4947748;28;20166;-58
2022/12/01 05:16:20;;;;;;;109.32;50.17;;;5.70;99.90;;;;;;4948169;28;20070;-59
2022/12/01 05:20:55;;;;;;;101.35;47.85;;;5.70;99.90;;;;;;4948020;28;20074;-58
2022/12/01 05:21:36;;;;;;;106.03;50.70;;;5.50;99.90;;;;;;4948260;28;20055;-59
2022/12/01 05:24:02;;;;;;;107.18;50.05;;;5.40;99.90;;;;;;4948519;28;20050;-59
2022/12/01 05:26:28;;;;;;;106.82;51.38;;;5.80;99.90;;;;;;4947418;28;20055;-59
2022/12/01 05:28:53;;;;;;;107.45;50.00;;;5.70;99.90;;;;;;4961813;28;20652;-59
2022/12/01 05:31:19;;;;;;;106.72;48.05;;;5.40;99.90;;;;;;4947845;28;20735;-59
2022/12/01 05:33:44;;;;;;;100.75;49.42;;;5.80;99.90;;;;;;4947863;28;20039;-57
2022/12/01 05:36:10;;;;;;;105.22;49.42;;;5.80;99.90;;;;;;4947052;28;20280;-59
2022/12/01 05:38:36;;;;;;;109.80;48.67;;;5.60;99.90;;;;;;4948162;28;20466;-59
2022/12/01 05:41:01;;;;;;;108.97;49.40;;;5.60;99.90;;;;;;4946756;28;20043;-58
2022/12/01 05:43:27;;;;;;;108.57;49.40;;;5.50;99.90;;;;;;4947691;28;20039;-58
2022/12/01 05:45:54;;;;;;;106.25;50.17;;;6.20;99.90;;;;;;4962125;28;20545;-58
2022/12/01 05:48:20;;;;;;;110.93;49.83;;;6.70;99.90;;;;;;4947684;28;20102;-59
2022/12/01 05:50:45;;;;;;;100.22;48.17;;;5.40;99.90;;;;;;4948152;28;20039;-59
2022/12/01 05:53:13;;;;;;;105.72;48.95;;;5.80;99.90;;;;;;4947772;28;20454;-58
2022/12/01 05:55:39;;;;;;;97.47;47.88;;;5.60;99.90;;;;;;4946024;28;20043;-59
2022/12/01 05:58:05;;;;;;;100.20;48.17;;;5.80;99.90;;;;;;4947688;28;20078;-59
2022/12/01 06:00:31;;;;;;;106.72;49.10;;;5.40;99.90;;;;;;4947729;28;20435;-59
2022/12/01 06:02:56;;;;;;;99.45;49.28;;;5.40;99.90;;;;;;4947360;28;20114;-59
2022/12/01 06:05:22;;;;;;;99.00;48.90;;;6.00;99.90;;;;;;4955464;28;20046;-59
2022/12/01 06:07:47;;;;;;;102.43;48.88;;;6.00;99.90;;;;;;4949537;28;20047;-59
2022/12/01 06:10:13;;;;;;;102.18;48.78;;;5.60;99.90;;;;;;4946315;28;20050;-59
2022/12/01 06:12:39;;;;;;;112.10;50.78;;;5.80;99.90;;;;;;4961248;28;20525;-60
2022/12/01 06:15:06;;;;;;;101.20;47.90;;;5.50;99.90;;;;;;4947931;28;20047;-59
2022/12/01 06:17:32;;;;;;;96.65;48.28;;;5.50;99.90;;;;;;4947153;28;20479;-59
2022/12/01 06:19:58;;;;;;;97.70;47.67;;;5.50;99.90;;;;;;4947000;28;20429;-59
2022/12/01 06:22:23;;;;;;;103.22;48.95;;;5.70;99.90;;;;;;4946256;28;20046;-59
2022/12/01 06:24:49;;;;;;;95.80;46.78;;;5.70;99.90;;;;;;4946136;28;20054;-59
2022/12/01 06:27:15;;;;;;;102.10;47.58;;;5.50;99.90;;;;;;4946832;28;20070;-57
2022/12/01 06:29:40;;;;;;;96.78;46.65;;;6.20;99.90;;;;;;4946938;28;20163;-59
2022/12/01 06:32:06;;;;;;;97.80;47.20;;;5.70;99.90;;;;;;4946599;28;20364;-59
2022/12/01 06:34:31;;;;;;;96.78;46.03;;;5.70;99.90;;;;;;4961463;28;20058;-58
2022/12/01 06:36:57;;;;;;;99.22;45.85;;;5.60;99.90;;;;;;4946778;28;20044;-58
2022/12/01 06:39:23;;;;;;;98.63;45.88;;;5.40;99.90;;;;;;4946256;28;20434;-60
2022/12/01 06:41:48;;;;;;;95.05;45.28;;;6.10;99.90;;;;;;4945583;28;20046;-58
2022/12/01 06:44:14;;;;;;;88.60;42.17;;;5.80;99.90;;;;;;4946871;28;20062;-59
2022/12/01 06:46:40;;;;;;;89.88;44.70;;;5.30;99.90;;;;;;4962165;28;20106;-59
2022/12/01 06:49:05;;;;;;;88.40;43.58;;;5.50;99.90;;;;;;4945474;28;20059;-59
2022/12/01 06:51:33;;;;;;;87.25;43.63;;;5.70;99.90;;;;;;4946724;28;20054;-58
2022/12/01 06:53:58;;;;;;;89.50;43.03;;;5.70;99.90;;;;;;4946594;28;20106;-59
2022/12/01 06:56:24;;;;;;;92.00;44.22;;;5.60;99.90;;;;;;4960349;28;20662;-58
2022/12/01 06:58:51;;;;;;;89.47;44.63;;;5.40;99.90;;;;;;4945483;28;20489;-59
2022/12/01 07:01:16;;;;;;;84.20;42.72;;;5.40;99.90;;;;;;4946288;28;20133;-58
2022/12/01 07:03:45;;;;;;;86.05;43.75;;;5.30;99.90;;;;;;4946911;28;20083;-60
2022/12/01 07:06:11;;;;;;;88.38;43.88;;;5.40;99.90;;;;;;4956662;28;20066;-59
2022/12/01 07:08:36;;;;;;;88.15;43.03;;;5.30;99.90;;;;;;4945918;28;20488;-59
2022/12/01 07:11:13;;;;;;;88.47;43.30;;;5.40;99.90;;;;;;4945245;28;20043;-59
2022/12/01 07:13:40;;;;;;;81.72;41.70;;;5.70;99.90;;;;;;4961351;28;20055;-59
2022/12/01 07:16:07;;;;;;;84.43;42.05;;;5.60;99.90;;;;;;4960435;28;20055;-59
2022/12/01 07:18:35;;;;;;;80.00;40.50;;;5.30;99.90;;;;;;4945806;28;20054;-59
2022/12/01 07:21:06;;;;;;;78.65;42.55;;;5.60;99.90;;;;;;4945810;28;20085;-59
2022/12/01 07:23:33;;;;;;;82.78;40.30;;;5.50;99.90;;;;;;4944919;28;20536;-59
2022/12/01 07:26:08;;;;;;;82.90;40.13;;;6.20;99.90;;;;;;4959476;28;20530;-58
2022/12/01 07:28:34;;;;;;;82.00;41.70;;;5.50;99.90;;;;;;4945868;28;20102;-58
2022/12/01 07:31:14;;;;;;;79.22;39.83;;;5.70;99.90;;;;;;4944567;28;20043;-59
2022/12/01 07:33:40;;;;;;;81.07;40.42;;;5.30;99.90;;;;;;4946082;28;20046;-59
2022/12/01 07:36:07;;;;;;;78.68;41.03;;;5.60;99.90;;;;;;4961042;28;20754;-59
2022/12/01 07:38:33;;;;;;;78.93;39.83;;;5.20;99.90;;;;;;4961577;28;20501;-59
2022/12/01 07:41:09;;;;;;;79.78;39.45;;;5.30;99.90;;;;;;4957402;28;20039;-59
2022/12/01 07:43:35;;;;;;;78.80;39.80;;;5.60;99.90;;;;;;4951982;28;20040;-59
2022/12/01 07:46:12;;;;;;;81.63;41.53;;;5.50;99.90;;;;;;4949959;28;20690;-59
2022/12/01 07:48:39;;;;;;;77.15;40.53;;;5.50;99.90;;;;;;4966620;28;20047;-59
2022/12/01 07:51:06;;;;;;;80.07;41.17;;;5.60;99.90;;;;;;4951630;28;20406;-59
2022/12/01 07:53:32;;;;;;;78.22;40.13;;;5.90;99.90;;;;;;4951437;28;20133;-59
2022/12/01 07:55:58;;;;;;;78.28;40.67;;;5.30;99.90;;;;;;4950507;28;20079;-59
2022/12/01 07:58:25;;;;;;;81.53;41.15;;;5.40;99.90;;;;;;4950384;28;20567;-59
2022/12/01 08:00:51;;;;;;;76.05;39.83;;;5.60;99.90;;;;;;4950070;28;20449;-59
2022/12/01 08:03:16;;;;;;;80.20;40.22;;;5.70;99.90;;;;;;4951698;28;20046;-59
2022/12/01 08:05:42;;;;;;;83.55;41.72;;;5.40;99.90;;;;;;4950324;28;20047;-58
2022/12/01 08:08:08;;;;;;;81.75;40.50;;;5.70;99.90;;;;;;4951720;28;20050;-59
2022/12/01 08:10:33;;;;;;;78.22;39.53;;;5.80;99.90;;;;;;4949625;28;20046;-59
2022/12/01 08:12:59;;;;;;;81.43;40.70;;;5.50;99.90;;;;;;4951482;28;20031;-59
2022/12/01 08:15:25;;;;;;;79.80;40.13;;;5.40;99.90;;;;;;4951229;28;20042;-59
2022/12/01 08:17:51;;;;;;;76.95;40.58;;;5.50;99.90;;;;;;4949682;28;20066;-59
2022/12/01 08:20:16;;;;;;;83.55;40.67;;;5.60;99.90;;;;;;4951056;28;20039;-59
2022/12/01 08:22:42;;;;;;;78.00;39.25;;;5.80;99.90;;;;;;4951533;28;20036;-59
2022/12/01 08:25:08;;;;;;;81.03;41.10;;;5.80;99.90;;;;;;4950019;28;20054;-59
2022/12/01 08:27:34;;;;;;;80.57;40.53;;;5.80;99.90;;;;;;4950601;28;20094;-59
2022/12/01 08:30:00;;;;;;;77.03;41.72;;;5.60;99.90;;;;;;4950125;28;20043;-60
2022/12/01 08:32:28;;;;;;;78.30;40.40;;;5.50;99.90;;;;;;4952918;28;20145;-59
2022/12/01 08:34:54;;;;;;;82.78;41.80;;;5.80;99.90;;;;;;4953319;28;20047;-59
2022/12/01 08:37:19;;;;;;;88.43;41.40;;;6.00;99.90;;;;;;4951376;28;20491;-59
2022/12/01 08:39:45;;;;;;;83.45;41.92;;;5.50;99.90;;;;;;4951442;28;20093;-59
2022/12/01 08:42:11;;;;;;;78.43;40.08;;;5.50;99.90;;;;;;4950618;28;20039;-59
2022/12/01 08:44:36;;;;;;;83.32;40.97;;;5.80;99.90;;;;;;4950634;28;20054;-59
2022/12/01 08:47:02;;;;;;;81.88;41.33;;;6.30;99.90;;;;;;4949844;28;20047;-59
2022/12/01 08:49:28;;;;;;;82.07;41.05;;;5.50;99.90;;;;;;4949095;28;20525;-59
2022/12/01 08:51:55;;;;;;;82.63;40.80;;;5.50;99.90;;;;;;4951789;28;20051;-59
2022/12/01 08:54:21;;;;;;;81.85;40.08;;;5.60;99.90;;;;;;4952464;28;20639;-60
2022/12/01 08:56:46;;;;;;;86.15;40.90;;;5.70;99.90;;;;;;4953248;28;20058;-59
2022/12/01 08:59:12;;;;;;;82.63;41.63;;;5.50;99.90;;;;;;4953204;28;20074;-59
2022/12/01 09:01:59;;;;;;;81.07;41.45;;;5.60;99.90;;;;;;4952054;28;20047;-59
2022/12/01 09:04:25;;;;;;;79.00;40.67;;;5.60;99.90;;;;;;4950530;28;20062;-59
2022/12/01 09:06:54;;;;;;;83.25;40.90;;;6.40;99.90;;;;;;4952010;28;20043;-59
2022/12/01 09:09:24;;;;;;;78.28;40.47;;;5.90;99.90;;;;;;4951428;28;20035;-60
2022/12/01 09:11:53;;;;;;;74.65;40.03;;;5.60;99.90;;;;;;4951092;28;20047;-59
2022/12/01 09:14:20;;;;;;;76.25;39.45;;;5.80;99.90;;;;;;4956113;28;20039;-61
2022/12/01 09:16:48;;;;;;;84.18;40.97;;;5.70;99.90;;;;;;4955740;28;20413;-58
2022/12/01 09:19:15;;;;;;;92.18;41.67;;;5.60;99.90;;;;;;4954804;28;20073;-59
2022/12/01 09:21:42;;;;;;;81.18;40.83;;;5.60;99.90;;;;;;4954362;28;20047;-60
2022/12/01 09:24:10;;;;;;;86.32;41.50;;;6.00;99.90;;;;;;4954342;28;20065;-59
2022/12/01 09:26:36;;;;;;;82.03;39.35;;;6.00;99.90;;;;;;4953671;28;20051;-59
2022/12/01 09:29:05;;;;;;;81.00;42.35;;;5.80;99.90;;;;;;4954180;28;20050;-59
2022/12/01 09:31:32;;;;;;;83.93;40.42;;;6.20;99.90;;;;;;4953548;28;20048;-59
2022/12/01 09:34:00;;;;;;;73.93;39.13;;;5.70;99.90;;;;;;4953882;28;20059;-59
2022/12/01 09:36:28;;;;;;;75.43;38.85;;;6.10;99.90;;;;;;4953259;28;20081;-59
2022/12/01 09:38:54;;;;;;;74.75;39.85;;;5.90;99.90;;;;;;4953182;28;20042;-59
2022/12/01 09:41:34;;;;;;;75.57;39.80;;;6.00;99.90;;;;;;4953640;28;20101;-58
2022/12/01 09:44:35;;;;;;;72.70;38.00;;;5.60;99.90;;;;;;4949407;28;20050;-59
2022/12/01 09:47:18;;;;;;;65.38;35.75;;;5.70;99.90;;;;;;4952627;28;20102;-57
2022/12/01 09:49:54;;;;;;;65.50;36.80;;;6.50;99.90;;;;;;4953763;28;20053;-59
2022/12/01 09:52:23;;;;;;;63.65;35.75;;;5.80;99.90;;;;;;4954103;28;20035;-59
2022/12/01 09:54:50;;;;;;;64.53;35.03;;;6.30;99.90;;;;;;4952702;28;20900;-59
2022/12/01 09:57:34;;;;;;;62.95;36.05;;;5.90;99.90;;;;;;4952226;28;20051;-59
2022/12/01 10:00:05;;;;;;;60.90;35.95;;;5.90;99.90;;;;;;4951346;28;20089;-59
2022/12/01 10:02:59;;;;;;;61.65;36.22;;;6.10;99.90;;;;;;4953287;28;20058;-59
2022/12/01 10:05:30;;;;;;;63.40;36.47;;;5.90;99.90;;;;;;4951162;28;20517;-56
2022/12/01 10:08:06;;;;;;;59.28;34.17;;;5.80;99.90;;;;;;4951673;28;20054;-59
2022/12/01 10:10:36;;;;;;;58.20;33.97;;;5.70;99.90;;;;;;4952325;28;20046;-59
2022/12/01 10:13:15;;;;;;;56.40;33.65;;;5.70;99.90;;;;;;4952581;28;20043;-58
2022/12/01 10:15:52;;;;;;;64.75;35.10;;;5.80;99.90;;;;;;4952286;28;20435;-59
2022/12/01 10:18:50;;;;;;;57.88;34.00;;;5.70;99.90;;;;;;4951859;28;20051;-59
2022/12/01 10:21:27;;;;;;;60.63;34.13;;;5.60;99.90;;;;;;4952975;28;20371;-57
2022/12/01 10:24:07;;;;;;;61.40;35.00;;;5.90;99.90;;;;;;4950423;28;20053;-60
2022/12/01 10:27:21;;;;;;;60.83;34.47;;;5.60;99.90;;;;;;4952488;28;20042;-59
2022/12/01 10:30:05;;;;;;;55.10;32.03;;;5.90;99.90;;;;;;4952973;28;20557;-58
2022/12/01 10:32:51;;;;;;;52.88;31.88;;;5.90;99.90;;;;;;4952801;28;20422;-59
2022/12/01 10:35:20;;;;;;;58.50;33.08;;;6.00;99.90;;;;;;4950115;28;20047;-59
2022/12/01 10:37:48;;;;;;;60.15;34.28;;;5.90;99.90;;;;;;4952597;28;20093;-59
2022/12/01 10:40:15;;;;;;;57.83;33.55;;;6.30;99.90;;;;;;4951639;28;20142;-57
2022/12/01 10:42:46;;;;;;;54.92;33.03;;;6.00;99.90;;;;;;4952471;28;20102;-59
2022/12/01 10:45:34;;;;;;;55.83;34.00;;;5.80;99.90;;;;;;4951418;28;20312;-59
2022/12/01 10:48:09;;;;;;;55.83;33.28;;;6.00;99.90;;;;;;4951682;28;20035;-58
2022/12/01 10:50:36;;;;;;;53.58;33.03;;;5.80;99.90;;;;;;4952137;28;20082;-58
2022/12/01 10:53:02;;;;;;;57.10;33.50;;;5.80;99.90;;;;;;4951678;28;20402;-59
2022/12/01 10:55:33;;;;;;;54.13;32.63;;;5.80;99.90;;;;;;4950528;28;20047;-59
2022/12/01 10:58:02;;;;;;;56.30;33.17;;;6.10;99.90;;;;;;4950832;28;20035;-59
2022/12/01 11:00:33;;;;;;;53.45;31.85;;;5.90;99.90;;;;;;4949266;28;20051;-59
2022/12/01 11:02:59;;;;;;;57.45;33.63;;;5.80;99.90;;;;;;4951986;28;20070;-58
2022/12/01 11:05:30;;;;;;;57.65;33.85;;;5.90;99.90;;;;;;4950229;28;20580;-57
2022/12/01 11:07:56;;;;;;;58.00;33.78;;;6.00;99.90;;;;;;4952235;28;20458;-59
2022/12/01 11:10:35;;;;;;;60.20;34.05;;;6.10;99.90;;;;;;4952089;28;20035;-58
2022/12/01 11:13:06;;;;;;;60.58;35.22;;;6.00;99.90;;;;;;4951497;28;20126;-58
2022/12/01 11:16:00;;;;;;;58.10;34.17;;;6.00;99.90;;;;;;4951380;28;20046;-59
2022/12/01 11:18:37;;;;;;;61.42;35.03;;;5.90;99.90;;;;;;4951565;28;20169;-59
2022/12/01 11:21:26;;;;;;;56.75;34.88;;;6.20;99.90;;;;;;4951741;28;20506;-58
2022/12/01 11:23:54;;;;;;;58.22;34.60;;;5.80;99.90;;;;;;4951133;28;20399;-59
2022/12/01 11:26:33;;;;;;;55.35;32.80;;;6.00;99.90;;;;;;4950764;28;20054;-58
2022/12/01 11:29:05;;;;;;;52.08;32.83;;;6.10;99.90;;;;;;4951383;28;20051;-59
2022/12/01 11:31:39;;;;;;;57.42;34.35;;;6.20;99.90;;;;;;4951726;28;20046;-59
2022/12/01 11:34:13;;;;;;;53.60;32.78;;;6.30;99.90;;;;;;4951037;28;20470;-58
2022/12/01 11:36:46;;;;;;;56.83;33.15;;;6.10;99.90;;;;;;4951417;28;20098;-57
2022/12/01 11:39:28;;;;;;;48.60;32.00;;;6.10;99.90;;;;;;4951269;28;20405;-58
2022/12/01 11:41:56;;;;;;;53.72;31.92;;;6.10;99.90;;;;;;4949253;28;20125;-58
2022/12/01 11:44:23;;;;;;;49.53;32.35;;;5.80;99.90;;;;;;4952738;28;20074;-59
2022/12/01 11:46:48;;;;;;;52.42;33.53;;;5.80;99.90;;;;;;4951445;28;20508;-58
2022/12/01 11:49:23;;;;;;;50.38;33.17;;;6.20;99.90;;;;;;4948725;28;20046;-59
2022/12/01 11:51:49;;;;;;;48.30;33.03;;;5.90;99.90;;;;;;4952031;28;20038;-58
2022/12/01 11:54:17;;;;;;;51.92;32.90;;;6.40;99.90;;;;;;4957006;28;20420;-59
2022/12/01 11:56:44;;;;;;;50.22;34.10;;;5.80;99.90;;;;;;4950553;28;20130;-59
2022/12/01 11:59:17;;;;;;;50.40;34.63;;;6.20;99.90;;;;;;4957677;28;20046;-58
2022/12/01 12:01:54;;;;;;;52.75;34.67;;;5.80;99.90;;;;;;4951319;28;20046;-58
2022/12/01 12:04:39;;;;;;;55.80;36.08;;;6.00;99.90;;;;;;4950313;28;20491;-59
2022/12/01 12:07:18;;;;;;;57.40;37.03;;;5.90;99.90;;;;;;4951027;28;20044;-59
2022/12/01 12:10:25;;;;;;;54.25;35.85;;;5.90;99.90;;;;;;4949349;28;20078;-59
2022/12/01 12:13:03;;;;;;;56.75;36.55;;;5.80;99.90;;;;;;4938698;28;20429;-58
2022/12/01 12:15:49;;;;;;;53.72;36.38;;;5.90;99.90;;;;;;4951524;28;20041;-59
2022/12/01 12:18:24;;;;;;;57.70;37.22;;;5.80;99.90;;;;;;4948390;28;20050;-59
2022/12/01 12:21:07;;;;;;;60.65;39.97;;;6.00;99.90;;;;;;4951312;28;20167;-59
2022/12/01 12:23:35;;;;;;;62.45;39.90;;;5.70;99.90;;;;;;4949979;28;20047;-59
2022/12/01 12:26:10;;;;;;;65.65;41.88;;;6.00;99.90;;;;;;4950771;28;20399;-59
2022/12/01 12:29:13;;;;;;;63.95;40.53;;;5.80;99.90;;;;;;4950994;28;20054;-59
2022/12/01 12:31:48;;;;;;;68.82;43.35;;;5.60;99.90;;;;;;4951751;28;20051;-59
2022/12/01 12:34:18;;;;;;;65.15;41.05;;;5.70;99.90;;;;;;4951192;28;20157;-60
2022/12/01 12:36:51;;;;;;;64.57;41.10;;;6.00;99.90;;;;;;4951075;28;20059;-59
2022/12/01 12:39:31;;;;;;;69.43;43.42;;;6.10;99.90;;;;;;4948962;28;20050;-59
2022/12/01 12:41:57;;;;;;;71.45;44.50;;;5.70;99.90;;;;;;4949881;28;20078;-59
2022/12/01 12:44:37;;;;;;;70.82;45.47;;;5.60;99.90;;;;;;4950525;28;20047;-59
2022/12/01 12:47:44;;;;;;;71.38;46.83;;;5.60;99.90;;;;;;4952344;28;20047;-59
2022/12/01 12:50:27;;;;;;;75.22;48.17;;;5.70;99.90;;;;;;4955110;28;20045;-59
2022/12/01 12:53:02;;;;;;;76.55;48.25;;;5.50;99.90;;;;;;4955256;28;20043;-59
2022/12/01 12:55:45;;;;;;;76.10;49.35;;;5.80;99.90;;;;;;4954336;28;20413;-59
2022/12/01 12:58:24;;;;;;;80.43;47.75;;;5.80;99.90;;;;;;4953154;28;20042;-65
2022/12/01 13:00:54;;;;;;;75.45;46.67;;;5.60;99.90;;;;;;4954423;28;20612;-65